sensor_id;sensor_type;location;lat;lon;timestamp;temperature;humidity
2873;DHT22;1444;49.166;7.312;2023-12-07T00:00:19;4.50;99.90
2873;DHT22;1444;49.166;7.312;2023-12-07T00:02:45;4.50;99.90
2873;DHT22;1444;49.166;7.312;2023-12-07T00:05:14;4.40;99.90
2873;DHT22;1444;49.166;7.312;2023-12-07T00:07:40;4.30;99.90
2873;DHT22;1444;49.166;7.312;2023-12-07T00:10:08;4.20;99.90
2873;DHT22;1444;49.166;7.312;2023-12-07T00:12:35;4.20;99.90
2873;DHT22;1444;49.166;7.312;2023-12-07T00:17:29;4.40;99.90
2873;DHT22;1444;49.166;7.312;2023-12-07T00:19:56;4.50;99.90
2873;DHT22;1444;49.166;7.312;2023-12-07T00:22:25;4.70;99.90
2873;DHT22;1444;49.166;7.312;2023-12-07T00:24:54;4.80;99.90
2873;DHT22;1444;49.166;7.312;2023-12-07T00:27:20;4.90;99.90
2873;DHT22;1444;49.166;7.312;2023-12-07T00:32:15;5.10;99.90
2873;DHT22;1444;49.166;7.312;2023-12-07T00:34:43;5.20;99.90
2873;DHT22;1444;49.166;7.312;2023-12-07T00:37:09;5.30;99.90
2873;DHT22;1444;49.166;7.312;2023-12-07T00:39:38;5.30;99.90
2873;DHT22;1444;49.166;7.312;2023-12-07T00:42:06;5.30;99.90
2873;DHT22;1444;49.166;7.312;2023-12-07T00:44:33;5.20;99.90
2873;DHT22;1444;49.166;7.312;2023-12-07T00:47:00;5.20;99.90
2873;DHT22;1444;49.166;7.312;2023-12-07T00:51:54;5.20;99.90
2873;DHT22;1444;49.166;7.312;2023-12-07T00:54:21;5.10;99.90
2873;DHT22;1444;49.166;7.312;2023-12-07T00:56:49;5.20;99.90
2873;DHT22;1444;49.166;7.312;2023-12-07T01:01:43;5.30;99.90
2873;DHT22;1444;49.166;7.312;2023-12-07T01:04:10;5.30;99.90
2873;DHT22;1444;49.166;7.312;2023-12-07T01:06:37;5.30;99.90
2873;DHT22;1444;49.166;7.312;2023-12-07T01:09:04;5.20;99.90
2873;DHT22;1444;49.166;7.312;2023-12-07T01:11:31;5.20;99.90
2873;DHT22;1444;49.166;7.312;2023-12-07T01:13:59;5.20;99.90
2873;DHT22;1444;49.166;7.312;2023-12-07T01:16:26;5.30;99.90
2873;DHT22;1444;49.166;7.312;2023-12-07T01:18:52;5.30;99.90
2873;DHT22;1444;49.166;7.312;2023-12-07T01:21:19;5.40;99.90
2873;DHT22;1444;49.166;7.312;2023-12-07T01:23:46;5.20;99.90
2873;DHT22;1444;49.166;7.312;2023-12-07T01:26:13;5.10;99.90
2873;DHT22;1444;49.166;7.312;2023-12-07T01:28:40;5.10;99.90
2873;DHT22;1444;49.166;7.312;2023-12-07T01:31:08;5.10;99.90
2873;DHT22;1444;49.166;7.312;2023-12-07T01:33:35;5.10;99.90
2873;DHT22;1444;49.166;7.312;2023-12-07T01:36:02;5.00;99.90
2873;DHT22;1444;49.166;7.312;2023-12-07T01:38:29;4.80;99.90
2873;DHT22;1444;49.166;7.312;2023-12-07T01:40:56;4.70;99.90
2873;DHT22;1444;49.166;7.312;2023-12-07T01:43:23;4.70;99.90
2873;DHT22;1444;49.166;7.312;2023-12-07T01:48:21;4.60;99.90
2873;DHT22;1444;49.166;7.312;2023-12-07T01:50:49;4.40;99.90
2873;DHT22;1444;49.166;7.312;2023-12-07T01:53:17;4.30;99.90
2873;DHT22;1444;49.166;7.312;2023-12-07T01:55:45;4.30;99.90
2873;DHT22;1444;49.166;7.312;2023-12-07T01:58:13;4.40;99.90
2873;DHT22;1444;49.166;7.312;2023-12-07T02:00:40;4.60;99.90
2873;DHT22;1444;49.166;7.312;2023-12-07T02:03:07;4.70;99.90
2873;DHT22;1444;49.166;7.312;2023-12-07T02:05:37;4.70;99.90
2873;DHT22;1444;49.166;7.312;2023-12-07T02:08:04;4.60;99.90
2873;DHT22;1444;49.166;7.312;2023-12-07T02:10:31;4.50;99.90
2873;DHT22;1444;49.166;7.312;2023-12-07T02:12:58;4.40;99.90
2873;DHT22;1444;49.166;7.312;2023-12-07T02:15:25;4.50;99.90
2873;DHT22;1444;49.166;7.312;2023-12-07T02:17:57;4.70;99.90
2873;DHT22;1444;49.166;7.312;2023-12-07T02:20:29;4.70;99.90
2873;DHT22;1444;49.166;7.312;2023-12-07T02:23:01;4.50;99.90
2873;DHT22;1444;49.166;7.312;2023-12-07T02:25:31;4.40;99.90
2873;DHT22;1444;49.166;7.312;2023-12-07T02:28:00;4.40;99.90
2873;DHT22;1444;49.166;7.312;2023-12-07T02:30:26;4.40;99.90
2873;DHT22;1444;49.166;7.312;2023-12-07T02:32:53;4.30;99.90
2873;DHT22;1444;49.166;7.312;2023-12-07T02:35:21;4.30;99.90
2873;DHT22;1444;49.166;7.312;2023-12-07T02:37:49;4.30;99.90
2873;DHT22;1444;49.166;7.312;2023-12-07T02:40:18;4.20;99.90
2873;DHT22;1444;49.166;7.312;2023-12-07T02:42:46;4.20;99.90
2873;DHT22;1444;49.166;7.312;2023-12-07T02:45:15;4.10;99.90
2873;DHT22;1444;49.166;7.312;2023-12-07T02:47:42;3.90;99.90
2873;DHT22;1444;49.166;7.312;2023-12-07T02:50:11;3.90;99.90
2873;DHT22;1444;49.166;7.312;2023-12-07T02:52:39;4.00;99.90
2873;DHT22;1444;49.166;7.312;2023-12-07T02:55:06;4.00;99.90
2873;DHT22;1444;49.166;7.312;2023-12-07T02:57:34;4.10;99.90
2873;DHT22;1444;49.166;7.312;2023-12-07T03:00:01;4.00;99.90
2873;DHT22;1444;49.166;7.312;2023-12-07T03:02:33;3.70;99.90
2873;DHT22;1444;49.166;7.312;2023-12-07T03:05:00;3.60;99.90
2873;DHT22;1444;49.166;7.312;2023-12-07T03:07:27;3.50;99.90
2873;DHT22;1444;49.166;7.312;2023-12-07T03:09:54;3.40;99.90
2873;DHT22;1444;49.166;7.312;2023-12-07T03:12:21;3.40;99.90
2873;DHT22;1444;49.166;7.312;2023-12-07T03:14:48;3.60;99.90
2873;DHT22;1444;49.166;7.312;2023-12-07T03:17:15;3.80;99.90
2873;DHT22;1444;49.166;7.312;2023-12-07T03:19:43;3.80;99.90
2873;DHT22;1444;49.166;7.312;2023-12-07T03:22:10;4.00;99.90
2873;DHT22;1444;49.166;7.312;2023-12-07T03:24:39;4.10;99.90
2873;DHT22;1444;49.166;7.312;2023-12-07T03:27:06;4.20;99.90
2873;DHT22;1444;49.166;7.312;2023-12-07T03:29:33;4.40;99.90
2873;DHT22;1444;49.166;7.312;2023-12-07T03:32:00;4.30;99.90
2873;DHT22;1444;49.166;7.312;2023-12-07T03:34:27;4.30;99.90
2873;DHT22;1444;49.166;7.312;2023-12-07T03:36:56;4.30;99.90
2873;DHT22;1444;49.166;7.312;2023-12-07T03:39:23;4.40;99.90
2873;DHT22;1444;49.166;7.312;2023-12-07T03:41:51;4.50;99.90
2873;DHT22;1444;49.166;7.312;2023-12-07T03:46:45;4.60;99.90
2873;DHT22;1444;49.166;7.312;2023-12-07T03:49:12;4.60;99.90
2873;DHT22;1444;49.166;7.312;2023-12-07T03:51:39;4.50;99.90
2873;DHT22;1444;49.166;7.312;2023-12-07T03:54:07;4.40;99.90
2873;DHT22;1444;49.166;7.312;2023-12-07T03:56:34;4.20;99.90
2873;DHT22;1444;49.166;7.312;2023-12-07T03:59:01;4.10;99.90
2873;DHT22;1444;49.166;7.312;2023-12-07T04:01:29;3.90;99.90
2873;DHT22;1444;49.166;7.312;2023-12-07T04:03:56;3.70;99.90
2873;DHT22;1444;49.166;7.312;2023-12-07T04:06:24;3.70;99.90
2873;DHT22;1444;49.166;7.312;2023-12-07T04:08:51;3.60;99.90
2873;DHT22;1444;49.166;7.312;2023-12-07T04:11:19;3.50;99.90
2873;DHT22;1444;49.166;7.312;2023-12-07T04:13:48;3.50;99.90
2873;DHT22;1444;49.166;7.312;2023-12-07T04:16:15;3.50;99.90
2873;DHT22;1444;49.166;7.312;2023-12-07T04:18:41;3.40;99.90
2873;DHT22;1444;49.166;7.312;2023-12-07T04:21:08;3.40;99.90
2873;DHT22;1444;49.166;7.312;2023-12-07T04:23:35;3.40;99.90
2873;DHT22;1444;49.166;7.312;2023-12-07T04:26:02;3.40;99.90
2873;DHT22;1444;49.166;7.312;2023-12-07T04:28:31;3.50;99.90
2873;DHT22;1444;49.166;7.312;2023-12-07T04:30:58;3.70;99.90
2873;DHT22;1444;49.166;7.312;2023-12-07T04:33:25;3.80;99.90
2873;DHT22;1444;49.166;7.312;2023-12-07T04:35:52;3.90;99.90
2873;DHT22;1444;49.166;7.312;2023-12-07T04:38:19;4.10;99.90
2873;DHT22;1444;49.166;7.312;2023-12-07T04:40:45;4.20;99.90
2873;DHT22;1444;49.166;7.312;2023-12-07T04:45:41;4.10;99.90
2873;DHT22;1444;49.166;7.312;2023-12-07T04:48:08;4.00;99.90
2873;DHT22;1444;49.166;7.312;2023-12-07T04:50:35;3.90;99.90
2873;DHT22;1444;49.166;7.312;2023-12-07T04:53:02;3.90;99.90
2873;DHT22;1444;49.166;7.312;2023-12-07T04:55:28;3.90;99.90
2873;DHT22;1444;49.166;7.312;2023-12-07T04:57:55;3.80;99.90
2873;DHT22;1444;49.166;7.312;2023-12-07T05:00:22;3.80;99.90
2873;DHT22;1444;49.166;7.312;2023-12-07T05:02:51;3.60;99.90
2873;DHT22;1444;49.166;7.312;2023-12-07T05:05:18;3.30;99.90
2873;DHT22;1444;49.166;7.312;2023-12-07T05:07:45;3.20;99.90
2873;DHT22;1444;49.166;7.312;2023-12-07T05:10:11;3.00;99.90
2873;DHT22;1444;49.166;7.312;2023-12-07T05:12:39;3.00;99.90
2873;DHT22;1444;49.166;7.312;2023-12-07T05:15:06;3.20;99.90
2873;DHT22;1444;49.166;7.312;2023-12-07T05:17:34;3.40;99.90
2873;DHT22;1444;49.166;7.312;2023-12-07T05:20:02;3.60;99.90
2873;DHT22;1444;49.166;7.312;2023-12-07T05:22:31;3.80;99.90
2873;DHT22;1444;49.166;7.312;2023-12-07T05:24:58;3.90;99.90
2873;DHT22;1444;49.166;7.312;2023-12-07T05:27:25;3.80;99.90
2873;DHT22;1444;49.166;7.312;2023-12-07T05:29:52;3.60;99.90
2873;DHT22;1444;49.166;7.312;2023-12-07T05:32:19;3.50;99.90
2873;DHT22;1444;49.166;7.312;2023-12-07T05:34:45;3.40;99.90
2873;DHT22;1444;49.166;7.312;2023-12-07T05:37:14;3.20;99.90
2873;DHT22;1444;49.166;7.312;2023-12-07T05:39:41;3.20;99.90
2873;DHT22;1444;49.166;7.312;2023-12-07T05:42:08;3.00;99.90
2873;DHT22;1444;49.166;7.312;2023-12-07T05:44:34;2.90;99.90
2873;DHT22;1444;49.166;7.312;2023-12-07T05:47:01;2.90;99.90
2873;DHT22;1444;49.166;7.312;2023-12-07T05:49:28;2.80;99.90
2873;DHT22;1444;49.166;7.312;2023-12-07T05:51:55;2.60;99.90
2873;DHT22;1444;49.166;7.312;2023-12-07T05:54:23;2.70;99.90
2873;DHT22;1444;49.166;7.312;2023-12-07T05:56:50;2.70;99.90
2873;DHT22;1444;49.166;7.312;2023-12-07T05:59:17;2.60;99.90
2873;DHT22;1444;49.166;7.312;2023-12-07T06:01:45;2.60;99.90
2873;DHT22;1444;49.166;7.312;2023-12-07T06:04:12;2.60;99.90
2873;DHT22;1444;49.166;7.312;2023-12-07T06:06:39;2.60;99.90
2873;DHT22;1444;49.166;7.312;2023-12-07T06:09:06;2.60;99.90
2873;DHT22;1444;49.166;7.312;2023-12-07T06:11:34;2.50;99.90
2873;DHT22;1444;49.166;7.312;2023-12-07T06:16:31;2.40;99.90
2873;DHT22;1444;49.166;7.312;2023-12-07T06:18:58;2.50;99.90
2873;DHT22;1444;49.166;7.312;2023-12-07T06:21:25;2.70;99.90
2873;DHT22;1444;49.166;7.312;2023-12-07T06:23:55;2.80;99.90
2873;DHT22;1444;49.166;7.312;2023-12-07T06:28:51;2.60;99.90
2873;DHT22;1444;49.166;7.312;2023-12-07T06:31:18;2.80;99.90
2873;DHT22;1444;49.166;7.312;2023-12-07T06:33:46;2.80;99.90
2873;DHT22;1444;49.166;7.312;2023-12-07T06:36:18;2.70;99.90
2873;DHT22;1444;49.166;7.312;2023-12-07T06:38:46;2.60;99.90
2873;DHT22;1444;49.166;7.312;2023-12-07T06:41:13;2.70;99.90
2873;DHT22;1444;49.166;7.312;2023-12-07T06:43:40;2.80;99.90
2873;DHT22;1444;49.166;7.312;2023-12-07T06:46:08;2.80;99.90
2873;DHT22;1444;49.166;7.312;2023-12-07T06:48:35;3.10;99.90
2873;DHT22;1444;49.166;7.312;2023-12-07T06:51:03;3.20;99.90
2873;DHT22;1444;49.166;7.312;2023-12-07T06:53:30;3.20;99.90
2873;DHT22;1444;49.166;7.312;2023-12-07T06:55:58;3.10;99.90
2873;DHT22;1444;49.166;7.312;2023-12-07T06:58:25;3.20;99.90
2873;DHT22;1444;49.166;7.312;2023-12-07T07:00:51;3.20;99.90
2873;DHT22;1444;49.166;7.312;2023-12-07T07:03:20;3.30;99.90
2873;DHT22;1444;49.166;7.312;2023-12-07T07:05:47;3.40;99.90
2873;DHT22;1444;49.166;7.312;2023-12-07T07:08:14;3.60;99.90
2873;DHT22;1444;49.166;7.312;2023-12-07T07:10:41;3.60;99.90
2873;DHT22;1444;49.166;7.312;2023-12-07T07:13:08;3.70;99.90
2873;DHT22;1444;49.166;7.312;2023-12-07T07:15:35;3.80;99.90
2873;DHT22;1444;49.166;7.312;2023-12-07T07:18:02;3.80;99.90
2873;DHT22;1444;49.166;7.312;2023-12-07T07:20:30;3.70;99.90
2873;DHT22;1444;49.166;7.312;2023-12-07T07:22:57;3.60;99.90
2873;DHT22;1444;49.166;7.312;2023-12-07T07:25:24;3.60;99.90
2873;DHT22;1444;49.166;7.312;2023-12-07T07:27:51;3.60;99.90
2873;DHT22;1444;49.166;7.312;2023-12-07T07:30:20;3.70;99.90
2873;DHT22;1444;49.166;7.312;2023-12-07T07:32:47;3.70;99.90
2873;DHT22;1444;49.166;7.312;2023-12-07T07:35:14;3.80;99.90
2873;DHT22;1444;49.166;7.312;2023-12-07T07:37:43;3.90;99.90
2873;DHT22;1444;49.166;7.312;2023-12-07T07:40:11;3.90;99.90
2873;DHT22;1444;49.166;7.312;2023-12-07T07:42:38;3.90;99.90
2873;DHT22;1444;49.166;7.312;2023-12-07T07:45:06;3.90;99.90
2873;DHT22;1444;49.166;7.312;2023-12-07T07:47:33;3.90;99.90
2873;DHT22;1444;49.166;7.312;2023-12-07T07:50:00;3.90;99.90
2873;DHT22;1444;49.166;7.312;2023-12-07T07:52:31;3.90;99.90
2873;DHT22;1444;49.166;7.312;2023-12-07T07:55:00;3.80;99.90
2873;DHT22;1444;49.166;7.312;2023-12-07T07:57:28;3.70;99.90
2873;DHT22;1444;49.166;7.312;2023-12-07T07:59:56;3.70;99.90
2873;DHT22;1444;49.166;7.312;2023-12-07T08:02:23;3.70;99.90
2873;DHT22;1444;49.166;7.312;2023-12-07T08:04:50;3.60;99.90
2873;DHT22;1444;49.166;7.312;2023-12-07T08:07:17;3.60;99.90
2873;DHT22;1444;49.166;7.312;2023-12-07T08:09:44;3.70;99.90
2873;DHT22;1444;49.166;7.312;2023-12-07T08:12:12;3.80;99.90
2873;DHT22;1444;49.166;7.312;2023-12-07T08:14:39;3.80;99.90
2873;DHT22;1444;49.166;7.312;2023-12-07T08:17:09;3.70;99.90
2873;DHT22;1444;49.166;7.312;2023-12-07T08:19:36;3.70;99.90
2873;DHT22;1444;49.166;7.312;2023-12-07T08:22:03;3.80;99.90
2873;DHT22;1444;49.166;7.312;2023-12-07T08:24:31;3.50;99.90
2873;DHT22;1444;49.166;7.312;2023-12-07T08:26:57;3.40;99.90
2873;DHT22;1444;49.166;7.312;2023-12-07T08:29:26;3.40;99.90
2873;DHT22;1444;49.166;7.312;2023-12-07T08:31:53;3.30;99.90
2873;DHT22;1444;49.166;7.312;2023-12-07T08:34:19;3.40;99.90
2873;DHT22;1444;49.166;7.312;2023-12-07T08:36:46;3.50;99.90
2873;DHT22;1444;49.166;7.312;2023-12-07T08:39:13;3.60;99.90
2873;DHT22;1444;49.166;7.312;2023-12-07T08:41:40;3.60;99.90
2873;DHT22;1444;49.166;7.312;2023-12-07T08:46:36;3.80;99.90
2873;DHT22;1444;49.166;7.312;2023-12-07T08:49:03;3.80;99.90
2873;DHT22;1444;49.166;7.312;2023-12-07T08:51:30;3.90;99.90
2873;DHT22;1444;49.166;7.312;2023-12-07T08:53:57;3.90;99.90
2873;DHT22;1444;49.166;7.312;2023-12-07T08:56:23;4.00;99.90
2873;DHT22;1444;49.166;7.312;2023-12-07T08:58:51;4.00;99.90
2873;DHT22;1444;49.166;7.312;2023-12-07T09:01:18;4.10;99.90
2873;DHT22;1444;49.166;7.312;2023-12-07T09:03:46;4.10;99.90
2873;DHT22;1444;49.166;7.312;2023-12-07T09:06:13;4.20;99.90
2873;DHT22;1444;49.166;7.312;2023-12-07T09:08:40;4.30;99.90
2873;DHT22;1444;49.166;7.312;2023-12-07T09:11:06;4.30;99.90
2873;DHT22;1444;49.166;7.312;2023-12-07T09:13:33;4.30;99.90
2873;DHT22;1444;49.166;7.312;2023-12-07T09:16:00;4.40;99.90
2873;DHT22;1444;49.166;7.312;2023-12-07T09:18:27;4.40;99.90
2873;DHT22;1444;49.166;7.312;2023-12-07T09:20:55;4.40;99.90
2873;DHT22;1444;49.166;7.312;2023-12-07T09:23:22;4.40;99.90
2873;DHT22;1444;49.166;7.312;2023-12-07T09:25:49;4.40;99.90
2873;DHT22;1444;49.166;7.312;2023-12-07T09:28:16;4.10;99.90
2873;DHT22;1444;49.166;7.312;2023-12-07T09:30:43;4.10;99.90
2873;DHT22;1444;49.166;7.312;2023-12-07T09:33:10;4.10;99.90
2873;DHT22;1444;49.166;7.312;2023-12-07T09:35:38;4.20;99.90
2873;DHT22;1444;49.166;7.312;2023-12-07T09:38:07;4.20;99.90
2873;DHT22;1444;49.166;7.312;2023-12-07T09:40:35;4.30;99.90
2873;DHT22;1444;49.166;7.312;2023-12-07T09:43:02;4.30;99.90
2873;DHT22;1444;49.166;7.312;2023-12-07T09:45:29;4.40;99.90
2873;DHT22;1444;49.166;7.312;2023-12-07T09:47:56;4.50;99.90
2873;DHT22;1444;49.166;7.312;2023-12-07T09:50:26;4.50;99.90
2873;DHT22;1444;49.166;7.312;2023-12-07T09:52:56;4.50;99.90
2873;DHT22;1444;49.166;7.312;2023-12-07T09:55:24;4.50;99.90
2873;DHT22;1444;49.166;7.312;2023-12-07T09:57:51;4.50;99.90
2873;DHT22;1444;49.166;7.312;2023-12-07T10:00:22;4.50;99.90
2873;DHT22;1444;49.166;7.312;2023-12-07T10:02:48;4.60;99.90
2873;DHT22;1444;49.166;7.312;2023-12-07T10:05:15;4.40;99.90
2873;DHT22;1444;49.166;7.312;2023-12-07T10:07:43;4.40;99.90
2873;DHT22;1444;49.166;7.312;2023-12-07T10:10:12;4.20;99.90
2873;DHT22;1444;49.166;7.312;2023-12-07T10:12:47;4.20;99.90
2873;DHT22;1444;49.166;7.312;2023-12-07T10:15:15;4.40;99.90
2873;DHT22;1444;49.166;7.312;2023-12-07T10:17:49;4.40;99.90
2873;DHT22;1444;49.166;7.312;2023-12-07T10:20:17;4.50;99.90
2873;DHT22;1444;49.166;7.312;2023-12-07T10:22:45;4.70;99.90
2873;DHT22;1444;49.166;7.312;2023-12-07T10:27:41;4.70;99.90
2873;DHT22;1444;49.166;7.312;2023-12-07T10:30:12;4.50;99.90
2873;DHT22;1444;49.166;7.312;2023-12-07T10:32:40;4.40;99.90
2873;DHT22;1444;49.166;7.312;2023-12-07T10:35:08;4.50;99.90
2873;DHT22;1444;49.166;7.312;2023-12-07T10:37:35;4.60;99.90
2873;DHT22;1444;49.166;7.312;2023-12-07T10:40:04;4.70;99.90
2873;DHT22;1444;49.166;7.312;2023-12-07T10:42:33;4.80;99.90
2873;DHT22;1444;49.166;7.312;2023-12-07T10:45:04;4.90;99.90
2873;DHT22;1444;49.166;7.312;2023-12-07T10:47:35;5.00;99.90
2873;DHT22;1444;49.166;7.312;2023-12-07T10:52:36;4.90;99.90
2873;DHT22;1444;49.166;7.312;2023-12-07T10:55:07;5.00;99.90
2873;DHT22;1444;49.166;7.312;2023-12-07T10:57:37;5.10;99.90
2873;DHT22;1444;49.166;7.312;2023-12-07T11:00:07;5.10;99.90
2873;DHT22;1444;49.166;7.312;2023-12-07T11:02:37;5.10;99.90
2873;DHT22;1444;49.166;7.312;2023-12-07T11:05:06;5.20;99.90
2873;DHT22;1444;49.166;7.312;2023-12-07T11:07:41;5.30;99.90
2873;DHT22;1444;49.166;7.312;2023-12-07T11:10:13;5.40;99.90
2873;DHT22;1444;49.166;7.312;2023-12-07T11:12:47;5.50;99.90
2873;DHT22;1444;49.166;7.312;2023-12-07T11:15:16;5.60;99.90
2873;DHT22;1444;49.166;7.312;2023-12-07T11:17:53;5.60;99.90
2873;DHT22;1444;49.166;7.312;2023-12-07T11:20:21;5.70;99.90
2873;DHT22;1444;49.166;7.312;2023-12-07T11:22:49;5.80;99.90
2873;DHT22;1444;49.166;7.312;2023-12-07T11:25:17;5.80;99.90
2873;DHT22;1444;49.166;7.312;2023-12-07T11:27:45;5.80;99.90
2873;DHT22;1444;49.166;7.312;2023-12-07T11:30:14;5.80;99.90
2873;DHT22;1444;49.166;7.312;2023-12-07T11:32:43;6.00;99.90
2873;DHT22;1444;49.166;7.312;2023-12-07T11:35:14;5.90;99.90
2873;DHT22;1444;49.166;7.312;2023-12-07T11:38:03;6.10;99.90
2873;DHT22;1444;49.166;7.312;2023-12-07T11:40:32;6.10;99.90
2873;DHT22;1444;49.166;7.312;2023-12-07T11:43:00;6.40;99.90
2873;DHT22;1444;49.166;7.312;2023-12-07T11:45:38;6.60;99.90
2873;DHT22;1444;49.166;7.312;2023-12-07T11:48:07;6.80;99.90
2873;DHT22;1444;49.166;7.312;2023-12-07T11:50:35;7.00;99.90
2873;DHT22;1444;49.166;7.312;2023-12-07T11:53:02;6.90;99.90
2873;DHT22;1444;49.166;7.312;2023-12-07T11:55:31;7.00;99.90
2873;DHT22;1444;49.166;7.312;2023-12-07T11:57:58;6.90;99.90
2873;DHT22;1444;49.166;7.312;2023-12-07T12:00:26;7.00;99.90
2873;DHT22;1444;49.166;7.312;2023-12-07T12:02:52;7.00;99.90
2873;DHT22;1444;49.166;7.312;2023-12-07T12:05:19;7.20;99.90
2873;DHT22;1444;49.166;7.312;2023-12-07T12:07:48;7.30;99.90
2873;DHT22;1444;49.166;7.312;2023-12-07T12:10:14;7.30;99.90
2873;DHT22;1444;49.166;7.312;2023-12-07T12:12:41;7.50;99.90
2873;DHT22;1444;49.166;7.312;2023-12-07T12:15:09;7.40;99.90
2873;DHT22;1444;49.166;7.312;2023-12-07T12:17:36;7.40;99.90
2873;DHT22;1444;49.166;7.312;2023-12-07T12:20:03;7.40;99.90
2873;DHT22;1444;49.166;7.312;2023-12-07T12:22:30;7.40;99.90
2873;DHT22;1444;49.166;7.312;2023-12-07T12:24:58;7.40;99.90
2873;DHT22;1444;49.166;7.312;2023-12-07T12:27:26;7.50;99.90
2873;DHT22;1444;49.166;7.312;2023-12-07T12:29:53;7.50;99.90
2873;DHT22;1444;49.166;7.312;2023-12-07T12:32:19;7.80;99.90
2873;DHT22;1444;49.166;7.312;2023-12-07T12:34:51;8.10;99.90
2873;DHT22;1444;49.166;7.312;2023-12-07T12:37:17;8.20;99.90
2873;DHT22;1444;49.166;7.312;2023-12-07T12:39:44;8.50;99.90
2873;DHT22;1444;49.166;7.312;2023-12-07T12:42:13;8.60;99.90
2873;DHT22;1444;49.166;7.312;2023-12-07T12:44:40;8.70;99.90
2873;DHT22;1444;49.166;7.312;2023-12-07T12:47:08;8.80;99.90
2873;DHT22;1444;49.166;7.312;2023-12-07T12:49:36;8.80;99.90
2873;DHT22;1444;49.166;7.312;2023-12-07T12:52:05;8.90;99.90
2873;DHT22;1444;49.166;7.312;2023-12-07T12:54:35;9.00;99.90
2873;DHT22;1444;49.166;7.312;2023-12-07T12:57:02;9.10;99.60
2873;DHT22;1444;49.166;7.312;2023-12-07T12:59:34;9.00;98.90
2873;DHT22;1444;49.166;7.312;2023-12-07T13:02:02;9.00;99.20
2873;DHT22;1444;49.166;7.312;2023-12-07T13:04:30;9.00;99.50
2873;DHT22;1444;49.166;7.312;2023-12-07T13:06:57;8.90;99.10
2873;DHT22;1444;49.166;7.312;2023-12-07T13:09:24;8.90;99.10
2873;DHT22;1444;49.166;7.312;2023-12-07T13:11:51;8.80;99.00
2873;DHT22;1444;49.166;7.312;2023-12-07T13:14:18;8.70;99.10
2873;DHT22;1444;49.166;7.312;2023-12-07T13:16:46;8.50;98.80
2873;DHT22;1444;49.166;7.312;2023-12-07T13:19:13;8.50;99.20
2873;DHT22;1444;49.166;7.312;2023-12-07T13:21:39;8.50;99.60
2873;DHT22;1444;49.166;7.312;2023-12-07T13:24:06;8.50;98.80
2873;DHT22;1444;49.166;7.312;2023-12-07T13:26:38;8.50;98.80
2873;DHT22;1444;49.166;7.312;2023-12-07T13:29:05;8.50;99.00
2873;DHT22;1444;49.166;7.312;2023-12-07T13:31:33;8.30;97.50
2873;DHT22;1444;49.166;7.312;2023-12-07T13:34:01;8.00;97.90
2873;DHT22;1444;49.166;7.312;2023-12-07T13:36:28;8.10;98.00
2873;DHT22;1444;49.166;7.312;2023-12-07T13:38:57;8.20;98.30
2873;DHT22;1444;49.166;7.312;2023-12-07T13:41:24;8.10;97.90
2873;DHT22;1444;49.166;7.312;2023-12-07T13:43:51;8.00;97.90
2873;DHT22;1444;49.166;7.312;2023-12-07T13:46:18;8.00;98.00
2873;DHT22;1444;49.166;7.312;2023-12-07T13:48:45;8.00;98.50
2873;DHT22;1444;49.166;7.312;2023-12-07T13:51:14;8.00;97.90
2873;DHT22;1444;49.166;7.312;2023-12-07T13:53:41;7.90;97.80
2873;DHT22;1444;49.166;7.312;2023-12-07T13:56:08;7.90;97.80
2873;DHT22;1444;49.166;7.312;2023-12-07T13:58:35;7.90;97.90
2873;DHT22;1444;49.166;7.312;2023-12-07T14:01:03;7.90;98.30
2873;DHT22;1444;49.166;7.312;2023-12-07T14:03:31;7.90;98.60
2873;DHT22;1444;49.166;7.312;2023-12-07T14:05:57;7.90;98.60
2873;DHT22;1444;49.166;7.312;2023-12-07T14:08:26;7.90;98.80
2873;DHT22;1444;49.166;7.312;2023-12-07T14:10:53;8.00;99.10
2873;DHT22;1444;49.166;7.312;2023-12-07T14:13:19;7.90;98.90
2873;DHT22;1444;49.166;7.312;2023-12-07T14:15:46;7.90;98.80
2873;DHT22;1444;49.166;7.312;2023-12-07T14:18:13;7.80;98.80
2873;DHT22;1444;49.166;7.312;2023-12-07T14:20:41;7.80;98.90
2873;DHT22;1444;49.166;7.312;2023-12-07T14:23:09;7.80;99.00
2873;DHT22;1444;49.166;7.312;2023-12-07T14:25:37;7.70;98.80
2873;DHT22;1444;49.166;7.312;2023-12-07T14:28:05;7.70;98.80
2873;DHT22;1444;49.166;7.312;2023-12-07T14:30:32;7.60;98.70
2873;DHT22;1444;49.166;7.312;2023-12-07T14:35:26;7.40;98.60
2873;DHT22;1444;49.166;7.312;2023-12-07T14:37:53;7.40;98.70
2873;DHT22;1444;49.166;7.312;2023-12-07T14:40:20;7.30;98.60
2873;DHT22;1444;49.166;7.312;2023-12-07T14:42:48;7.30;98.90
2873;DHT22;1444;49.166;7.312;2023-12-07T14:45:15;7.20;99.00
2873;DHT22;1444;49.166;7.312;2023-12-07T14:47:46;7.20;99.00
2873;DHT22;1444;49.166;7.312;2023-12-07T14:50:12;7.10;99.10
2873;DHT22;1444;49.166;7.312;2023-12-07T14:52:39;7.10;99.00
2873;DHT22;1444;49.166;7.312;2023-12-07T14:55:07;7.10;99.00
2873;DHT22;1444;49.166;7.312;2023-12-07T14:57:34;7.00;99.20
2873;DHT22;1444;49.166;7.312;2023-12-07T15:00:03;6.90;98.70
2873;DHT22;1444;49.166;7.312;2023-12-07T15:02:31;6.90;98.80
2873;DHT22;1444;49.166;7.312;2023-12-07T15:04:57;7.00;99.00
2873;DHT22;1444;49.166;7.312;2023-12-07T15:09:51;7.00;98.80
2873;DHT22;1444;49.166;7.312;2023-12-07T15:12:18;6.90;98.60
2873;DHT22;1444;49.166;7.312;2023-12-07T15:14:45;6.90;98.60
2873;DHT22;1444;49.166;7.312;2023-12-07T15:17:13;6.90;98.40
2873;DHT22;1444;49.166;7.312;2023-12-07T15:19:41;6.90;98.50
2873;DHT22;1444;49.166;7.312;2023-12-07T15:22:08;6.80;98.30
2873;DHT22;1444;49.166;7.312;2023-12-07T15:24:36;6.70;98.40
2873;DHT22;1444;49.166;7.312;2023-12-07T15:27:03;6.60;98.00
2873;DHT22;1444;49.166;7.312;2023-12-07T15:29:30;6.50;98.30
2873;DHT22;1444;49.166;7.312;2023-12-07T15:31:59;6.50;98.40
2873;DHT22;1444;49.166;7.312;2023-12-07T15:34:27;6.50;98.20
2873;DHT22;1444;49.166;7.312;2023-12-07T15:36:54;6.40;98.30
2873;DHT22;1444;49.166;7.312;2023-12-07T15:39:21;6.50;98.30
2873;DHT22;1444;49.166;7.312;2023-12-07T15:41:48;6.40;98.30
2873;DHT22;1444;49.166;7.312;2023-12-07T15:44:15;6.40;98.30
2873;DHT22;1444;49.166;7.312;2023-12-07T15:46:42;6.40;98.40
2873;DHT22;1444;49.166;7.312;2023-12-07T15:49:08;6.40;97.90
2873;DHT22;1444;49.166;7.312;2023-12-07T15:51:37;6.30;98.00
2873;DHT22;1444;49.166;7.312;2023-12-07T15:54:04;6.30;97.80
2873;DHT22;1444;49.166;7.312;2023-12-07T15:56:31;6.20;97.80
2873;DHT22;1444;49.166;7.312;2023-12-07T15:58:57;6.20;98.00
2873;DHT22;1444;49.166;7.312;2023-12-07T16:01:24;6.20;98.20
2873;DHT22;1444;49.166;7.312;2023-12-07T16:03:51;6.20;98.00
2873;DHT22;1444;49.166;7.312;2023-12-07T16:06:18;6.10;98.10
2873;DHT22;1444;49.166;7.312;2023-12-07T16:08:46;6.10;98.00
2873;DHT22;1444;49.166;7.312;2023-12-07T16:11:13;6.10;97.90
2873;DHT22;1444;49.166;7.312;2023-12-07T16:13:40;6.10;98.20
2873;DHT22;1444;49.166;7.312;2023-12-07T16:16:07;6.10;98.20
2873;DHT22;1444;49.166;7.312;2023-12-07T16:18:34;6.00;98.20
2873;DHT22;1444;49.166;7.312;2023-12-07T16:21:01;6.00;98.40
2873;DHT22;1444;49.166;7.312;2023-12-07T16:23:28;6.00;98.60
2873;DHT22;1444;49.166;7.312;2023-12-07T16:25:57;6.00;98.40
2873;DHT22;1444;49.166;7.312;2023-12-07T16:28:24;6.00;98.30
2873;DHT22;1444;49.166;7.312;2023-12-07T16:30:50;5.90;98.50
2873;DHT22;1444;49.166;7.312;2023-12-07T16:33:17;5.80;98.40
2873;DHT22;1444;49.166;7.312;2023-12-07T16:35:44;5.80;98.50
2873;DHT22;1444;49.166;7.312;2023-12-07T16:38:11;5.80;98.50
2873;DHT22;1444;49.166;7.312;2023-12-07T16:40:38;5.70;98.50
2873;DHT22;1444;49.166;7.312;2023-12-07T16:43:06;5.70;98.50
2873;DHT22;1444;49.166;7.312;2023-12-07T16:45:34;5.70;98.70
2873;DHT22;1444;49.166;7.312;2023-12-07T16:48:01;5.60;98.70
2873;DHT22;1444;49.166;7.312;2023-12-07T16:50:28;5.70;98.80
2873;DHT22;1444;49.166;7.312;2023-12-07T16:52:55;5.60;98.70